sensor_id;sensor_type;location;lat;lon;timestamp;P1;durP1;ratioP1;P2;durP2;ratioP2
41221;SDS011;26952;42.884;23.918;2023-04-29T00:01:32;7.10;;;5.40;;
41221;SDS011;26952;42.884;23.918;2023-04-29T00:03:57;6.35;;;5.18;;
41221;SDS011;26952;42.884;23.918;2023-04-29T00:06:23;5.82;;;5.07;;
41221;SDS011;26952;42.884;23.918;2023-04-29T00:08:48;6.40;;;5.72;;
41221;SDS011;26952;42.884;23.918;2023-04-29T00:11:14;6.35;;;5.13;;
41221;SDS011;26952;42.884;23.918;2023-04-29T00:13:39;5.95;;;5.45;;
41221;SDS011;26952;42.884;23.918;2023-04-29T00:16:05;5.30;;;4.85;;
41221;SDS011;26952;42.884;23.918;2023-04-29T00:18:31;6.05;;;5.25;;
41221;SDS011;26952;42.884;23.918;2023-04-29T00:20:56;5.40;;;4.60;;
41221;SDS011;26952;42.884;23.918;2023-04-29T00:23:22;5.22;;;4.10;;
41221;SDS011;26952;42.884;23.918;2023-04-29T00:25:47;5.03;;;4.60;;
41221;SDS011;26952;42.884;23.918;2023-04-29T00:28:13;4.75;;;4.20;;
41221;SDS011;26952;42.884;23.918;2023-04-29T00:30:38;5.10;;;3.90;;
41221;SDS011;26952;42.884;23.918;2023-04-29T00:33:04;4.97;;;3.40;;
41221;SDS011;26952;42.884;23.918;2023-04-29T00:35:29;3.78;;;3.47;;
41221;SDS011;26952;42.884;23.918;2023-04-29T00:37:54;4.25;;;3.15;;
41221;SDS011;26952;42.884;23.918;2023-04-29T00:40:20;4.57;;;3.42;;
41221;SDS011;26952;42.884;23.918;2023-04-29T00:42:45;3.83;;;3.03;;
41221;SDS011;26952;42.884;23.918;2023-04-29T00:45:11;3.67;;;3.22;;
41221;SDS011;26952;42.884;23.918;2023-04-29T00:47:37;5.05;;;3.08;;
41221;SDS011;26952;42.884;23.918;2023-04-29T00:50:06;4.13;;;3.05;;
41221;SDS011;26952;42.884;23.918;2023-04-29T00:52:32;5.82;;;3.58;;
41221;SDS011;26952;42.884;23.918;2023-04-29T00:54:58;5.15;;;3.38;;
41221;SDS011;26952;42.884;23.918;2023-04-29T00:57:24;3.70;;;3.33;;
41221;SDS011;26952;42.884;23.918;2023-04-29T00:59:54;5.57;;;3.53;;
41221;SDS011;26952;42.884;23.918;2023-04-29T01:02:21;4.25;;;3.22;;
41221;SDS011;26952;42.884;23.918;2023-04-29T01:04:47;5.15;;;3.38;;
41221;SDS011;26952;42.884;23.918;2023-04-29T01:07:16;3.97;;;3.58;;
41221;SDS011;26952;42.884;23.918;2023-04-29T01:15:32;3.60;;;3.30;;
41221;SDS011;26952;42.884;23.918;2023-04-29T01:18:04;5.90;;;3.17;;
41221;SDS011;26952;42.884;23.918;2023-04-29T01:20:36;7.05;;;3.20;;
41221;SDS011;26952;42.884;23.918;2023-04-29T01:23:02;3.40;;;2.60;;
41221;SDS011;26952;42.884;23.918;2023-04-29T01:25:28;4.10;;;3.38;;
41221;SDS011;26952;42.884;23.918;2023-04-29T01:32:57;3.80;;;2.88;;
41221;SDS011;26952;42.884;23.918;2023-04-29T01:35:29;4.38;;;3.05;;
41221;SDS011;26952;42.884;23.918;2023-04-29T01:40:39;5.90;;;2.92;;
41221;SDS011;26952;42.884;23.918;2023-04-29T01:43:20;7.07;;;3.17;;
41221;SDS011;26952;42.884;23.918;2023-04-29T01:45:48;2.80;;;2.53;;
41221;SDS011;26952;42.884;23.918;2023-04-29T01:48:16;3.30;;;2.78;;
41221;SDS011;26952;42.884;23.918;2023-04-29T01:50:43;8.38;;;6.28;;
41221;SDS011;26952;42.884;23.918;2023-04-29T01:53:08;6.35;;;3.65;;
41221;SDS011;26952;42.884;23.918;2023-04-29T01:55:34;6.30;;;4.43;;
41221;SDS011;26952;42.884;23.918;2023-04-29T01:57:59;6.13;;;3.83;;
41221;SDS011;26952;42.884;23.918;2023-04-29T02:00:24;6.47;;;4.00;;
41221;SDS011;26952;42.884;23.918;2023-04-29T02:02:50;6.10;;;3.72;;
41221;SDS011;26952;42.884;23.918;2023-04-29T02:05:15;4.35;;;3.78;;
41221;SDS011;26952;42.884;23.918;2023-04-29T02:07:41;4.65;;;3.83;;
41221;SDS011;26952;42.884;23.918;2023-04-29T02:10:08;6.57;;;3.72;;
41221;SDS011;26952;42.884;23.918;2023-04-29T02:12:34;5.65;;;3.72;;
41221;SDS011;26952;42.884;23.918;2023-04-29T02:15:00;5.05;;;3.55;;
41221;SDS011;26952;42.884;23.918;2023-04-29T02:17:26;5.00;;;3.65;;
41221;SDS011;26952;42.884;23.918;2023-04-29T02:19:51;4.78;;;3.67;;
41221;SDS011;26952;42.884;23.918;2023-04-29T02:22:19;4.38;;;3.67;;
41221;SDS011;26952;42.884;23.918;2023-04-29T02:24:44;5.25;;;3.95;;
41221;SDS011;26952;42.884;23.918;2023-04-29T02:27:10;3.55;;;3.25;;
41221;SDS011;26952;42.884;23.918;2023-04-29T02:29:35;5.03;;;3.78;;
41221;SDS011;26952;42.884;23.918;2023-04-29T02:32:01;3.88;;;3.45;;
41221;SDS011;26952;42.884;23.918;2023-04-29T02:34:26;4.68;;;3.50;;
41221;SDS011;26952;42.884;23.918;2023-04-29T02:36:52;4.18;;;3.78;;
41221;SDS011;26952;42.884;23.918;2023-04-29T02:39:17;6.47;;;3.60;;
41221;SDS011;26952;42.884;23.918;2023-04-29T02:41:44;9.02;;;3.67;;
41221;SDS011;26952;42.884;23.918;2023-04-29T02:44:10;4.55;;;4.15;;
41221;SDS011;26952;42.884;23.918;2023-04-29T02:46:35;4.78;;;3.80;;
41221;SDS011;26952;42.884;23.918;2023-04-29T02:49:01;4.43;;;4.03;;
41221;SDS011;26952;42.884;23.918;2023-04-29T02:51:27;4.13;;;3.72;;
41221;SDS011;26952;42.884;23.918;2023-04-29T02:53:53;5.28;;;4.00;;
41221;SDS011;26952;42.884;23.918;2023-04-29T02:56:19;4.50;;;4.05;;
41221;SDS011;26952;42.884;23.918;2023-04-29T02:58:45;5.32;;;3.83;;
41221;SDS011;26952;42.884;23.918;2023-04-29T03:01:10;11.50;;;6.80;;
41221;SDS011;26952;42.884;23.918;2023-04-29T03:03:36;4.47;;;3.78;;
41221;SDS011;26952;42.884;23.918;2023-04-29T03:06:02;7.25;;;5.43;;
41221;SDS011;26952;42.884;23.918;2023-04-29T03:08:27;5.22;;;4.13;;
41221;SDS011;26952;42.884;23.918;2023-04-29T03:10:53;5.47;;;4.10;;
41221;SDS011;26952;42.884;23.918;2023-04-29T03:13:18;6.65;;;4.43;;
41221;SDS011;26952;42.884;23.918;2023-04-29T03:15:44;4.55;;;3.92;;
41221;SDS011;26952;42.884;23.918;2023-04-29T03:18:10;4.95;;;4.15;;
41221;SDS011;26952;42.884;23.918;2023-04-29T03:20:35;3.75;;;3.45;;
41221;SDS011;26952;42.884;23.918;2023-04-29T03:23:01;6.03;;;3.60;;
41221;SDS011;26952;42.884;23.918;2023-04-29T03:25:26;4.63;;;4.20;;
41221;SDS011;26952;42.884;23.918;2023-04-29T03:27:52;8.07;;;4.05;;
41221;SDS011;26952;42.884;23.918;2023-04-29T03:30:18;3.70;;;3.40;;
41221;SDS011;26952;42.884;23.918;2023-04-29T03:32:43;4.85;;;3.45;;
41221;SDS011;26952;42.884;23.918;2023-04-29T03:35:09;4.80;;;3.60;;
41221;SDS011;26952;42.884;23.918;2023-04-29T03:37:35;7.95;;;5.53;;
41221;SDS011;26952;42.884;23.918;2023-04-29T03:40:01;4.95;;;4.13;;
41221;SDS011;26952;42.884;23.918;2023-04-29T03:42:26;5.35;;;3.45;;
41221;SDS011;26952;42.884;23.918;2023-04-29T03:44:52;5.00;;;3.97;;
41221;SDS011;26952;42.884;23.918;2023-04-29T03:47:17;5.22;;;3.90;;
41221;SDS011;26952;42.884;23.918;2023-04-29T03:49:44;4.63;;;3.38;;
41221;SDS011;26952;42.884;23.918;2023-04-29T03:52:09;4.45;;;3.83;;
41221;SDS011;26952;42.884;23.918;2023-04-29T03:54:36;5.00;;;4.13;;
41221;SDS011;26952;42.884;23.918;2023-04-29T03:57:01;5.95;;;3.80;;
41221;SDS011;26952;42.884;23.918;2023-04-29T03:59:28;4.63;;;4.15;;
41221;SDS011;26952;42.884;23.918;2023-04-29T04:01:54;4.13;;;3.72;;
41221;SDS011;26952;42.884;23.918;2023-04-29T04:04:19;4.53;;;4.10;;
41221;SDS011;26952;42.884;23.918;2023-04-29T04:06:45;4.28;;;3.78;;
41221;SDS011;26952;42.884;23.918;2023-04-29T04:09:15;6.20;;;4.40;;
41221;SDS011;26952;42.884;23.918;2023-04-29T04:11:41;4.07;;;3.78;;
41221;SDS011;26952;42.884;23.918;2023-04-29T04:14:06;5.88;;;4.03;;
41221;SDS011;26952;42.884;23.918;2023-04-29T04:16:32;4.75;;;3.90;;
41221;SDS011;26952;42.884;23.918;2023-04-29T04:18:57;4.68;;;4.28;;
41221;SDS011;26952;42.884;23.918;2023-04-29T04:21:23;5.15;;;4.45;;
41221;SDS011;26952;42.884;23.918;2023-04-29T04:23:49;4.82;;;4.43;;
41221;SDS011;26952;42.884;23.918;2023-04-29T04:26:15;9.55;;;4.47;;
41221;SDS011;26952;42.884;23.918;2023-04-29T04:28:40;9.20;;;4.75;;
41221;SDS011;26952;42.884;23.918;2023-04-29T04:31:06;5.18;;;4.78;;
41221;SDS011;26952;42.884;23.918;2023-04-29T04:33:32;4.38;;;3.28;;
41221;SDS011;26952;42.884;23.918;2023-04-29T04:35:58;5.80;;;3.72;;
41221;SDS011;26952;42.884;23.918;2023-04-29T04:38:24;6.10;;;4.25;;
41221;SDS011;26952;42.884;23.918;2023-04-29T04:40:50;14.77;;;12.38;;
41221;SDS011;26952;42.884;23.918;2023-04-29T04:43:15;21.38;;;17.88;;
41221;SDS011;26952;42.884;23.918;2023-04-29T04:45:41;23.73;;;20.85;;
41221;SDS011;26952;42.884;23.918;2023-04-29T04:48:07;16.67;;;15.07;;
41221;SDS011;26952;42.884;23.918;2023-04-29T04:50:32;13.95;;;12.63;;
41221;SDS011;26952;42.884;23.918;2023-04-29T04:52:57;13.43;;;12.32;;
41221;SDS011;26952;42.884;23.918;2023-04-29T04:55:23;18.20;;;16.40;;
41221;SDS011;26952;42.884;23.918;2023-04-29T04:57:48;21.05;;;19.15;;
41221;SDS011;26952;42.884;23.918;2023-04-29T05:00:14;18.33;;;16.65;;
41221;SDS011;26952;42.884;23.918;2023-04-29T05:02:40;18.58;;;17.02;;
41221;SDS011;26952;42.884;23.918;2023-04-29T05:05:06;18.27;;;16.67;;
41221;SDS011;26952;42.884;23.918;2023-04-29T05:07:31;11.45;;;10.48;;
41221;SDS011;26952;42.884;23.918;2023-04-29T05:09:59;11.70;;;10.45;;
41221;SDS011;26952;42.884;23.918;2023-04-29T05:12:28;15.20;;;10.57;;
41221;SDS011;26952;42.884;23.918;2023-04-29T05:14:56;13.48;;;12.27;;
41221;SDS011;26952;42.884;23.918;2023-04-29T05:17:23;12.40;;;10.95;;
41221;SDS011;26952;42.884;23.918;2023-04-29T05:19:48;12.10;;;10.95;;
41221;SDS011;26952;42.884;23.918;2023-04-29T05:22:15;12.32;;;11.13;;
41221;SDS011;26952;42.884;23.918;2023-04-29T05:24:40;11.80;;;10.65;;
41221;SDS011;26952;42.884;23.918;2023-04-29T05:27:05;12.35;;;11.43;;
41221;SDS011;26952;42.884;23.918;2023-04-29T05:29:31;13.15;;;12.00;;
41221;SDS011;26952;42.884;23.918;2023-04-29T05:31:56;10.18;;;9.18;;
41221;SDS011;26952;42.884;23.918;2023-04-29T05:34:22;8.90;;;8.10;;
41221;SDS011;26952;42.884;23.918;2023-04-29T05:36:47;7.90;;;7.20;;
41221;SDS011;26952;42.884;23.918;2023-04-29T05:39:13;7.47;;;6.70;;
41221;SDS011;26952;42.884;23.918;2023-04-29T05:41:38;7.10;;;6.40;;
41221;SDS011;26952;42.884;23.918;2023-04-29T05:44:04;11.57;;;10.25;;
41221;SDS011;26952;42.884;23.918;2023-04-29T05:46:29;12.93;;;11.52;;
41221;SDS011;26952;42.884;23.918;2023-04-29T05:48:55;8.95;;;8.05;;
41221;SDS011;26952;42.884;23.918;2023-04-29T05:51:20;11.88;;;6.80;;
41221;SDS011;26952;42.884;23.918;2023-04-29T05:53:45;8.43;;;7.13;;
41221;SDS011;26952;42.884;23.918;2023-04-29T05:56:11;12.32;;;8.30;;
41221;SDS011;26952;42.884;23.918;2023-04-29T05:58:36;9.60;;;7.28;;
41221;SDS011;26952;42.884;23.918;2023-04-29T06:01:02;7.47;;;6.78;;
41221;SDS011;26952;42.884;23.918;2023-04-29T06:03:27;9.13;;;8.05;;
41221;SDS011;26952;42.884;23.918;2023-04-29T06:05:53;8.13;;;7.32;;
41221;SDS011;26952;42.884;23.918;2023-04-29T06:08:18;9.90;;;6.53;;
41221;SDS011;26952;42.884;23.918;2023-04-29T06:10:44;7.75;;;6.90;;
41221;SDS011;26952;42.884;23.918;2023-04-29T06:13:10;9.52;;;7.35;;
41221;SDS011;26952;42.884;23.918;2023-04-29T06:15:36;8.63;;;7.88;;
41221;SDS011;26952;42.884;23.918;2023-04-29T06:18:01;10.48;;;9.45;;
41221;SDS011;26952;42.884;23.918;2023-04-29T06:20:27;12.18;;;11.10;;
41221;SDS011;26952;42.884;23.918;2023-04-29T06:22:52;14.27;;;13.27;;
41221;SDS011;26952;42.884;23.918;2023-04-29T06:25:18;20.05;;;18.58;;
41221;SDS011;26952;42.884;23.918;2023-04-29T06:27:43;10.40;;;9.57;;
41221;SDS011;26952;42.884;23.918;2023-04-29T06:30:08;16.15;;;15.15;;
41221;SDS011;26952;42.884;23.918;2023-04-29T06:32:35;27.50;;;25.70;;
41221;SDS011;26952;42.884;23.918;2023-04-29T06:35:01;12.70;;;11.77;;
41221;SDS011;26952;42.884;23.918;2023-04-29T06:37:27;10.77;;;10.00;;
41221;SDS011;26952;42.884;23.918;2023-04-29T06:39:52;12.88;;;12.07;;
41221;SDS011;26952;42.884;23.918;2023-04-29T06:42:18;22.48;;;21.02;;
41221;SDS011;26952;42.884;23.918;2023-04-29T06:44:43;17.50;;;15.93;;
41221;SDS011;26952;42.884;23.918;2023-04-29T06:47:09;25.13;;;23.48;;
41221;SDS011;26952;42.884;23.918;2023-04-29T06:49:34;23.40;;;22.02;;
41221;SDS011;26952;42.884;23.918;2023-04-29T06:51:59;33.17;;;31.35;;
41221;SDS011;26952;42.884;23.918;2023-04-29T06:54:26;29.20;;;27.60;;
41221;SDS011;26952;42.884;23.918;2023-04-29T06:56:52;39.35;;;37.05;;
41221;SDS011;26952;42.884;23.918;2023-04-29T06:59:18;36.03;;;33.85;;
41221;SDS011;26952;42.884;23.918;2023-04-29T07:01:43;36.03;;;33.88;;
41221;SDS011;26952;42.884;23.918;2023-04-29T07:04:09;18.42;;;17.15;;
41221;SDS011;26952;42.884;23.918;2023-04-29T07:06:34;24.67;;;23.33;;
41221;SDS011;26952;42.884;23.918;2023-04-29T07:09:00;25.10;;;23.48;;
41221;SDS011;26952;42.884;23.918;2023-04-29T07:11:26;29.45;;;27.77;;
41221;SDS011;26952;42.884;23.918;2023-04-29T07:13:51;29.10;;;27.55;;
41221;SDS011;26952;42.884;23.918;2023-04-29T07:16:17;23.50;;;22.13;;
41221;SDS011;26952;42.884;23.918;2023-04-29T07:18:45;29.08;;;27.33;;
41221;SDS011;26952;42.884;23.918;2023-04-29T07:21:14;35.50;;;33.40;;
41221;SDS011;26952;42.884;23.918;2023-04-29T07:23:39;25.65;;;23.58;;
41221;SDS011;26952;42.884;23.918;2023-04-29T07:26:11;19.83;;;18.50;;
41221;SDS011;26952;42.884;23.918;2023-04-29T07:28:37;18.75;;;17.38;;
41221;SDS011;26952;42.884;23.918;2023-04-29T07:31:03;17.27;;;16.08;;
41221;SDS011;26952;42.884;23.918;2023-04-29T07:33:29;12.95;;;12.13;;
41221;SDS011;26952;42.884;23.918;2023-04-29T07:35:55;18.88;;;17.77;;
41221;SDS011;26952;42.884;23.918;2023-04-29T07:38:20;14.82;;;13.77;;
41221;SDS011;26952;42.884;23.918;2023-04-29T07:40:46;14.70;;;13.77;;
41221;SDS011;26952;42.884;23.918;2023-04-29T07:43:11;13.20;;;12.32;;
41221;SDS011;26952;42.884;23.918;2023-04-29T07:45:37;13.55;;;12.60;;
41221;SDS011;26952;42.884;23.918;2023-04-29T07:48:04;17.92;;;16.92;;
41221;SDS011;26952;42.884;23.918;2023-04-29T07:50:30;23.40;;;22.05;;
41221;SDS011;26952;42.884;23.918;2023-04-29T07:52:55;21.85;;;20.55;;
41221;SDS011;26952;42.884;23.918;2023-04-29T07:55:21;25.42;;;23.92;;
41221;SDS011;26952;42.884;23.918;2023-04-29T07:57:47;20.75;;;19.55;;
41221;SDS011;26952;42.884;23.918;2023-04-29T08:00:13;21.92;;;20.70;;
41221;SDS011;26952;42.884;23.918;2023-04-29T08:02:38;27.90;;;26.40;;
41221;SDS011;26952;42.884;23.918;2023-04-29T08:05:04;26.50;;;25.00;;
41221;SDS011;26952;42.884;23.918;2023-04-29T08:07:29;28.67;;;27.15;;
41221;SDS011;26952;42.884;23.918;2023-04-29T08:09:55;36.90;;;34.67;;
41221;SDS011;26952;42.884;23.918;2023-04-29T08:12:20;30.90;;;29.30;;
41221;SDS011;26952;42.884;23.918;2023-04-29T08:14:46;34.28;;;32.55;;
41221;SDS011;26952;42.884;23.918;2023-04-29T08:17:11;28.63;;;27.08;;
41221;SDS011;26952;42.884;23.918;2023-04-29T08:19:36;29.25;;;27.63;;
41221;SDS011;26952;42.884;23.918;2023-04-29T08:22:02;34.25;;;32.35;;
41221;SDS011;26952;42.884;23.918;2023-04-29T08:24:28;29.20;;;27.60;;
41221;SDS011;26952;42.884;23.918;2023-04-29T08:26:54;36.30;;;34.28;;
41221;SDS011;26952;42.884;23.918;2023-04-29T08:29:19;17.90;;;16.90;;
41221;SDS011;26952;42.884;23.918;2023-04-29T08:31:45;22.30;;;20.90;;
41221;SDS011;26952;42.884;23.918;2023-04-29T08:34:10;20.08;;;18.98;;
41221;SDS011;26952;42.884;23.918;2023-04-29T08:36:36;22.60;;;21.40;;
41221;SDS011;26952;42.884;23.918;2023-04-29T08:39:02;19.50;;;18.38;;
41221;SDS011;26952;42.884;23.918;2023-04-29T08:41:30;17.83;;;16.83;;
41221;SDS011;26952;42.884;23.918;2023-04-29T08:43:57;22.17;;;21.00;;
41221;SDS011;26952;42.884;23.918;2023-04-29T08:46:24;21.98;;;20.85;;
41221;SDS011;26952;42.884;23.918;2023-04-29T08:48:51;25.67;;;24.25;;
41221;SDS011;26952;42.884;23.918;2023-04-29T08:51:17;26.77;;;25.17;;
41221;SDS011;26952;42.884;23.918;2023-04-29T08:53:42;14.45;;;13.52;;
41221;SDS011;26952;42.884;23.918;2023-04-29T08:56:08;21.92;;;20.73;;
41221;SDS011;26952;42.884;23.918;2023-04-29T08:58:40;18.13;;;17.13;;
41221;SDS011;26952;42.884;23.918;2023-04-29T09:01:07;13.60;;;12.80;;
41221;SDS011;26952;42.884;23.918;2023-04-29T09:03:49;13.00;;;12.30;;
41221;SDS011;26952;42.884;23.918;2023-04-29T09:06:20;12.90;;;12.10;;
41221;SDS011;26952;42.884;23.918;2023-04-29T09:08:46;19.45;;;18.33;;
41221;SDS011;26952;42.884;23.918;2023-04-29T09:11:12;26.75;;;25.38;;
41221;SDS011;26952;42.884;23.918;2023-04-29T09:13:39;29.45;;;27.95;;
41221;SDS011;26952;42.884;23.918;2023-04-29T09:16:09;26.55;;;25.08;;
41221;SDS011;26952;42.884;23.918;2023-04-29T09:18:47;34.38;;;32.47;;
41221;SDS011;26952;42.884;23.918;2023-04-29T09:21:23;34.13;;;32.47;;
41221;SDS011;26952;42.884;23.918;2023-04-29T09:23:52;35.85;;;34.08;;
41221;SDS011;26952;42.884;23.918;2023-04-29T09:26:19;31.67;;;30.02;;
41221;SDS011;26952;42.884;23.918;2023-04-29T09:28:45;23.70;;;22.58;;
41221;SDS011;26952;42.884;23.918;2023-04-29T09:31:12;21.58;;;20.30;;
41221;SDS011;26952;42.884;23.918;2023-04-29T09:33:50;20.73;;;19.67;;
41221;SDS011;26952;42.884;23.918;2023-04-29T09:39:14;21.65;;;20.45;;
41221;SDS011;26952;42.884;23.918;2023-04-29T09:41:56;20.73;;;19.63;;
41221;SDS011;26952;42.884;23.918;2023-04-29T09:44:26;19.02;;;18.05;;
41221;SDS011;26952;42.884;23.918;2023-04-29T09:46:54;22.10;;;20.98;;
41221;SDS011;26952;42.884;23.918;2023-04-29T09:52:05;17.13;;;16.13;;
41221;SDS011;26952;42.884;23.918;2023-04-29T09:54:33;16.10;;;15.30;;
41221;SDS011;26952;42.884;23.918;2023-04-29T09:57:00;17.00;;;15.90;;
41221;SDS011;26952;42.884;23.918;2023-04-29T09:59:29;21.15;;;20.15;;
41221;SDS011;26952;42.884;23.918;2023-04-29T10:01:57;21.63;;;20.23;;
41221;SDS011;26952;42.884;23.918;2023-04-29T10:04:26;22.75;;;21.55;;
41221;SDS011;26952;42.884;23.918;2023-04-29T10:06:52;19.90;;;18.83;;
41221;SDS011;26952;42.884;23.918;2023-04-29T10:09:19;24.05;;;22.65;;
41221;SDS011;26952;42.884;23.918;2023-04-29T10:11:47;24.17;;;22.98;;
41221;SDS011;26952;42.884;23.918;2023-04-29T10:14:15;27.85;;;26.40;;
41221;SDS011;26952;42.884;23.918;2023-04-29T10:16:44;27.98;;;26.63;;
41221;SDS011;26952;42.884;23.918;2023-04-29T10:19:11;25.67;;;24.23;;
41221;SDS011;26952;42.884;23.918;2023-04-29T10:21:59;23.52;;;22.35;;
41221;SDS011;26952;42.884;23.918;2023-04-29T10:24:34;31.00;;;29.45;;
41221;SDS011;26952;42.884;23.918;2023-04-29T10:27:01;24.85;;;23.55;;
41221;SDS011;26952;42.884;23.918;2023-04-29T10:29:29;26.55;;;24.90;;
41221;SDS011;26952;42.884;23.918;2023-04-29T10:31:58;31.05;;;29.45;;
41221;SDS011;26952;42.884;23.918;2023-04-29T10:34:25;31.75;;;30.27;;
41221;SDS011;26952;42.884;23.918;2023-04-29T10:36:50;29.88;;;28.38;;
41221;SDS011;26952;42.884;23.918;2023-04-29T10:39:25;28.40;;;26.98;;
41221;SDS011;26952;42.884;23.918;2023-04-29T10:41:57;30.05;;;28.35;;
41221;SDS011;26952;42.884;23.918;2023-04-29T10:44:22;27.95;;;26.50;;
41221;SDS011;26952;42.884;23.918;2023-04-29T10:46:48;27.33;;;25.98;;
41221;SDS011;26952;42.884;23.918;2023-04-29T10:49:13;26.27;;;24.88;;
41221;SDS011;26952;42.884;23.918;2023-04-29T10:54:08;23.60;;;22.42;;
41221;SDS011;26952;42.884;23.918;2023-04-29T10:56:47;25.02;;;23.83;;
41221;SDS011;26952;42.884;23.918;2023-04-29T10:59:43;22.00;;;20.83;;
41221;SDS011;26952;42.884;23.918;2023-04-29T11:02:00;23.73;;;22.17;;
41221;SDS011;26952;42.884;23.918;2023-04-29T11:04:26;20.75;;;19.73;;
41221;SDS011;26952;42.884;23.918;2023-04-29T11:06:53;22.80;;;21.52;;
41221;SDS011;26952;42.884;23.918;2023-04-29T11:17:01;29.60;;;28.00;;
41221;SDS011;26952;42.884;23.918;2023-04-29T11:19:32;24.23;;;23.05;;
41221;SDS011;26952;42.884;23.918;2023-04-29T11:22:41;27.40;;;25.90;;
41221;SDS011;26952;42.884;23.918;2023-04-29T11:25:12;25.80;;;24.30;;
41221;SDS011;26952;42.884;23.918;2023-04-29T11:27:37;23.92;;;22.73;;
41221;SDS011;26952;42.884;23.918;2023-04-29T11:30:04;23.17;;;21.95;;
41221;SDS011;26952;42.884;23.918;2023-04-29T11:32:38;26.92;;;25.55;;
41221;SDS011;26952;42.884;23.918;2023-04-29T11:35:12;31.45;;;29.92;;
41221;SDS011;26952;42.884;23.918;2023-04-29T11:37:42;26.27;;;24.88;;
41221;SDS011;26952;42.884;23.918;2023-04-29T11:40:09;25.58;;;24.23;;
41221;SDS011;26952;42.884;23.918;2023-04-29T11:45:09;32.13;;;30.33;;
41221;SDS011;26952;42.884;23.918;2023-04-29T11:47:35;31.17;;;29.65;;
41221;SDS011;26952;42.884;23.918;2023-04-29T11:50:07;25.08;;;23.83;;
41221;SDS011;26952;42.884;23.918;2023-04-29T11:52:34;22.38;;;21.02;;
41221;SDS011;26952;42.884;23.918;2023-04-29T11:55:01;21.90;;;20.55;;
41221;SDS011;26952;42.884;23.918;2023-04-29T11:57:27;18.17;;;17.08;;
41221;SDS011;26952;42.884;23.918;2023-04-29T11:59:53;19.33;;;18.23;;
41221;SDS011;26952;42.884;23.918;2023-04-29T12:02:27;22.58;;;21.42;;
41221;SDS011;26952;42.884;23.918;2023-04-29T12:04:53;19.27;;;18.20;;
41221;SDS011;26952;42.884;23.918;2023-04-29T12:07:19;19.50;;;18.00;;
41221;SDS011;26952;42.884;23.918;2023-04-29T12:09:44;23.27;;;21.98;;
41221;SDS011;26952;42.884;23.918;2023-04-29T12:12:11;20.17;;;18.83;;
41221;SDS011;26952;42.884;23.918;2023-04-29T12:14:38;23.42;;;22.02;;
41221;SDS011;26952;42.884;23.918;2023-04-29T12:17:05;20.23;;;19.15;;
41221;SDS011;26952;42.884;23.918;2023-04-29T12:19:31;21.55;;;20.25;;
41221;SDS011;26952;42.884;23.918;2023-04-29T12:22:01;18.52;;;17.52;;
41221;SDS011;26952;42.884;23.918;2023-04-29T12:26:53;16.85;;;15.85;;
41221;SDS011;26952;42.884;23.918;2023-04-29T12:29:20;17.25;;;16.17;;
41221;SDS011;26952;42.884;23.918;2023-04-29T12:31:49;12.18;;;10.95;;
41221;SDS011;26952;42.884;23.918;2023-04-29T12:34:15;13.95;;;12.82;;
41221;SDS011;26952;42.884;23.918;2023-04-29T12:36:41;12.43;;;11.55;;
41221;SDS011;26952;42.884;23.918;2023-04-29T12:39:07;12.00;;;11.30;;
41221;SDS011;26952;42.884;23.918;2023-04-29T12:41:35;12.23;;;11.55;;
41221;SDS011;26952;42.884;23.918;2023-04-29T12:44:05;11.32;;;10.63;;
41221;SDS011;26952;42.884;23.918;2023-04-29T12:46:37;12.50;;;11.70;;
41221;SDS011;26952;42.884;23.918;2023-04-29T12:49:04;12.48;;;11.68;;
41221;SDS011;26952;42.884;23.918;2023-04-29T12:51:33;11.18;;;10.48;;
41221;SDS011;26952;42.884;23.918;2023-04-29T12:54:02;9.73;;;9.13;;
41221;SDS011;26952;42.884;23.918;2023-04-29T12:56:30;10.35;;;9.52;;
41221;SDS011;26952;42.884;23.918;2023-04-29T12:58:56;11.35;;;10.45;;
41221;SDS011;26952;42.884;23.918;2023-04-29T13:01:22;10.10;;;9.38;;
41221;SDS011;26952;42.884;23.918;2023-04-29T13:03:47;13.27;;;12.38;;
41221;SDS011;26952;42.884;23.918;2023-04-29T13:06:13;15.65;;;14.65;;
41221;SDS011;26952;42.884;23.918;2023-04-29T13:08:40;25.25;;;23.95;;
41221;SDS011;26952;42.884;23.918;2023-04-29T13:11:05;24.95;;;23.52;;
41221;SDS011;26952;42.884;23.918;2023-04-29T13:13:31;26.65;;;25.17;;
41221;SDS011;26952;42.884;23.918;2023-04-29T13:15:57;29.90;;;28.27;;
41221;SDS011;26952;42.884;23.918;2023-04-29T13:18:22;35.50;;;33.63;;
41221;SDS011;26952;42.884;23.918;2023-04-29T13:20:47;33.13;;;31.35;;
41221;SDS011;26952;42.884;23.918;2023-04-29T13:23:13;36.30;;;34.22;;
41221;SDS011;26952;42.884;23.918;2023-04-29T13:25:38;33.08;;;31.27;;
41221;SDS011;26952;42.884;23.918;2023-04-29T13:28:03;26.48;;;24.80;;
41221;SDS011;26952;42.884;23.918;2023-04-29T13:30:29;20.67;;;19.17;;
41221;SDS011;26952;42.884;23.918;2023-04-29T13:32:55;23.95;;;22.10;;
41221;SDS011;26952;42.884;23.918;2023-04-29T13:35:20;24.50;;;22.83;;
41221;SDS011;26952;42.884;23.918;2023-04-29T13:37:46;28.98;;;27.20;;
41221;SDS011;26952;42.884;23.918;2023-04-29T13:40:12;23.48;;;22.00;;
41221;SDS011;26952;42.884;23.918;2023-04-29T13:42:37;21.95;;;20.45;;
41221;SDS011;26952;42.884;23.918;2023-04-29T13:45:03;27.38;;;25.83;;
41221;SDS011;26952;42.884;23.918;2023-04-29T13:47:29;25.00;;;23.65;;
41221;SDS011;26952;42.884;23.918;2023-04-29T13:49:54;25.70;;;23.95;;
41221;SDS011;26952;42.884;23.918;2023-04-29T13:52:20;26.50;;;24.73;;
41221;SDS011;26952;42.884;23.918;2023-04-29T13:54:45;24.98;;;23.55;;
41221;SDS011;26952;42.884;23.918;2023-04-29T13:57:10;42.05;;;39.03;;
41221;SDS011;26952;42.884;23.918;2023-04-29T13:59:36;23.85;;;22.45;;
41221;SDS011;26952;42.884;23.918;2023-04-29T14:02:01;23.38;;;21.88;;
41221;SDS011;26952;42.884;23.918;2023-04-29T14:04:27;25.40;;;23.55;;
41221;SDS011;26952;42.884;23.918;2023-04-29T14:06:53;24.83;;;23.10;;
41221;SDS011;26952;42.884;23.918;2023-04-29T14:09:20;24.83;;;23.25;;
41221;SDS011;26952;42.884;23.918;2023-04-29T14:11:46;22.00;;;20.77;;
41221;SDS011;26952;42.884;23.918;2023-04-29T14:14:12;21.17;;;19.63;;
41221;SDS011;26952;42.884;23.918;2023-04-29T14:16:38;17.45;;;16.15;;
41221;SDS011;26952;42.884;23.918;2023-04-29T14:19:03;19.30;;;17.85;;
41221;SDS011;26952;42.884;23.918;2023-04-29T14:21:29;19.90;;;18.70;;
41221;SDS011;26952;42.884;23.918;2023-04-29T14:23:57;18.83;;;17.63;;
41221;SDS011;26952;42.884;23.918;2023-04-29T14:26:23;14.45;;;13.55;;
41221;SDS011;26952;42.884;23.918;2023-04-29T14:28:49;15.32;;;13.98;;
41221;SDS011;26952;42.884;23.918;2023-04-29T14:31:21;18.10;;;16.95;;
41221;SDS011;26952;42.884;23.918;2023-04-29T14:34:02;19.25;;;18.05;;
41221;SDS011;26952;42.884;23.918;2023-04-29T14:36:28;28.23;;;26.45;;
41221;SDS011;26952;42.884;23.918;2023-04-29T14:38:54;38.85;;;36.65;;
41221;SDS011;26952;42.884;23.918;2023-04-29T14:41:19;41.42;;;38.83;;
41221;SDS011;26952;42.884;23.918;2023-04-29T14:43:48;33.63;;;31.75;;
41221;SDS011;26952;42.884;23.918;2023-04-29T14:46:13;31.27;;;29.55;;
41221;SDS011;26952;42.884;23.918;2023-04-29T14:48:39;175.05;;;120.53;;
41221;SDS011;26952;42.884;23.918;2023-04-29T14:51:04;36.22;;;33.30;;